Time;durP1;ratioP1;P1;durP2;ratioP2;P2;SDS_P1;SDS_P2;PMS_P1;PMS_P2;Temp;Humidity;BMP_temperature;BMP_pressure;BME280_temperature;BME280_humidity;BME280_pressure;Samples;Min_cycle;Max_cycle;Signal;HPM_P1;HPM_P2
2021/06/18 05:45:22;;;;;;;16.98;11.52;;;;;;;;;;5151946;27;20304;-69
2021/06/18 05:47:51;;;;;;;15.93;11.20;;;;;;;;;;5127850;27;20042;-73
2021/06/18 05:50:17;;;;;;;18.58;11.60;;;;;;;;;;5112949;27;20027;-70
2021/06/18 05:52:43;;;;;;;18.98;13.57;;;;;;;;;;5120002;27;20444;-72
2021/06/18 05:55:09;;;;;;;24.17;13.88;;;;;;;;;;5123082;27;20026;-70
2021/06/18 06:00:50;;;;;;;20.50;12.52;;;;;;;;;;5125036;27;20149;-73
2021/06/18 06:03:27;;;;;;;15.90;11.35;;;;;;;;;;5125176;27;20047;-76
2021/06/18 06:06:05;;;;;;;16.70;11.73;;;;;;;;;;5120671;27;20024;-75
2021/06/18 06:08:39;;;;;;;15.27;10.63;;;;;;;;;;5103110;28;20368;-74
2021/06/18 06:11:11;;;;;;;27.10;12.57;;;;;;;;;;5132526;27;20132;-75
2021/06/18 06:13:45;;;;;;;18.65;10.63;;;;;;;;;;5110129;28;20505;-75
2021/06/18 06:16:26;;;;;;;18.27;11.18;;;;;;;;;;5115163;28;20019;-75
2021/06/18 06:18:55;;;;;;;20.05;11.50;;;;;;;;;;5133908;27;20023;-75
2021/06/18 06:21:43;;;;;;;;;;;;;;;;;;;;;
2021/06/18 06:24:15;;;;;;;15.07;10.45;;;;;;;;;;5117880;27;20020;-74
2021/06/18 06:29:34;;;;;;;16.05;10.93;;;;;;;;;;5115305;28;20032;-74
2021/06/18 06:32:00;;;;;;;18.90;10.30;;;;;;;;;;5108755;28;20028;-75
2021/06/18 06:34:26;;;;;;;14.77;11.07;;;;;;;;;;5115631;28;20099;-75
2021/06/18 06:36:52;;;;;;;16.92;10.35;;;;;;;;;;5124936;27;20081;-75
2021/06/18 06:39:18;;;;;;;16.63;10.60;;;;;;;;;;5108445;28;20382;-76
2021/06/18 06:41:44;;;;;;;16.23;10.98;;;;;;;;;;5121775;28;20118;-73
2021/06/18 06:44:10;;;;;;;16.92;10.35;;;;;;;;;;5108853;27;20047;-75
2021/06/18 06:46:36;;;;;;;18.90;10.40;;;;;;;;;;5120766;27;20030;-72
2021/06/18 06:49:02;;;;;;;14.95;11.02;;;;;;;;;;5125319;27;20035;-75
2021/06/18 06:51:31;;;;;;;16.55;9.55;;;;;;;;;;5114935;27;20024;-74
2021/06/18 06:53:57;;;;;;;35.65;27.77;;;;;;;;;;5114921;27;20034;-75
2021/06/18 06:56:23;;;;;;;21.50;15.07;;;;;;;;;;5104642;27;20035;-71
2021/06/18 06:58:49;;;;;;;14.07;10.13;;;;;;;;;;5117142;27;20060;-76
2021/06/18 07:01:15;;;;;;;13.57;8.85;;;;;;;;;;5100511;28;20053;-75
2021/06/18 07:03:44;;;;;;;14.07;9.65;;;;;;;;;;5111944;28;20034;-76
2021/06/18 07:06:11;;;;;;;17.08;12.35;;;;;;;;;;5096584;28;20020;-76
2021/06/18 07:08:37;;;;;;;12.48;7.63;;;;;;;;;;5105035;27;20367;-75
2021/06/18 07:11:03;;;;;;;26.63;17.65;;;;;;;;;;5102283;27;20028;-83
2021/06/18 07:13:29;;;;;;;14.55;7.68;;;;;;;;;;5107286;27;20116;-73
2021/06/18 07:15:56;;;;;;;17.65;9.25;;;;;;;;;;5098812;27;20039;-77
2021/06/18 07:18:22;;;;;;;33.28;25.58;;;;;;;;;;5096950;28;20042;-74
2021/06/18 07:20:51;;;;;;;15.70;8.40;;;;;;;;;;5102461;27;20023;-76
2021/06/18 07:23:19;;;;;;;27.63;16.92;;;;;;;;;;5108650;27;20039;-84
2021/06/18 07:25:45;;;;;;;12.20;7.78;;;;;;;;;;5104475;27;20106;-83
2021/06/18 07:28:11;;;;;;;14.32;8.85;;;;;;;;;;5082301;28;20024;-76
2021/06/18 07:30:40;;;;;;;40.28;28.10;;;;;;;;;;5083940;28;20024;-74
2021/06/18 07:33:07;;;;;;;18.83;12.93;;;;;;;;;;5101263;28;20063;-78
2021/06/18 07:35:35;;;;;;;17.30;8.88;;;;;;;;;;5098183;28;20032;-76
2021/06/18 07:38:02;;;;;;;13.73;8.20;;;;;;;;;;5101098;28;20028;-76
2021/06/18 07:40:28;;;;;;;13.70;7.70;;;;;;;;;;5105323;27;20105;-73
2021/06/18 07:42:54;;;;;;;10.00;7.60;;;;;;;;;;5107327;28;20024;-73
2021/06/18 07:45:22;;;;;;;25.67;12.60;;;25.10;99.90;;;;;;5101165;27;20119;-78
2021/06/18 07:47:48;;;;;;;46.75;32.15;;;30.90;94.60;;;;;;5102055;28;20072;-74
2021/06/18 07:50:18;;;;;;;14.82;8.82;;;;;;;;;;5096052;27;20444;-74
2021/06/18 07:52:46;;;;;;;26.95;16.27;;;;;;;;;;5107166;27;20361;-78
2021/06/18 07:55:19;;;;;;;83.18;58.75;;;;;;;;;;5099853;27;20039;-74
2021/06/18 07:57:48;;;;;;;97.97;68.53;;;;;;;;;;5102034;27;20571;-76
2021/06/18 08:00:14;;;;;;;17.25;10.88;;;;;;;;;;5098084;28;20035;-74
2021/06/18 08:02:41;;;;;;;41.47;28.70;;;;;;;;;;5107921;27;20110;-74
2021/06/18 08:05:10;;;;;;;13.98;7.88;;;;;;;;;;5108016;28;20063;-73
2021/06/18 08:07:38;;;;;;;45.80;29.95;;;;;;;;;;5111989;28;20019;-74
2021/06/18 08:10:05;;;;;;;21.25;13.63;;;;;;;;;;5079468;28;20061;-75
2021/06/18 08:12:31;;;;;;;40.15;26.60;;;;;;;;;;5102840;27;20027;-77
2021/06/18 08:14:57;;;;;;;13.30;8.25;;;;;;;;;;5083390;28;20092;-73
2021/06/18 08:17:25;;;;;;;14.48;6.68;;;;;;;;;;5102785;27;20027;-76
2021/06/18 08:19:52;;;;;;;13.50;7.95;;;;;;;;;;5102714;27;20631;-73
2021/06/18 08:22:20;;;;;;;15.07;7.55;;;;;;;;;;5102771;27;20102;-73
2021/06/18 08:24:46;;;;;;;11.05;7.28;;;;;;;;;;5104331;27;20567;-74
2021/06/18 08:27:12;;;;;;;18.63;8.35;;;;;;;;;;5118990;27;20023;-75
2021/06/18 08:29:38;;;;;;;17.55;9.23;;;;;;;;;;5106460;28;20028;-76
2021/06/18 08:32:07;;;;;;;18.27;10.60;;;;;;;;;;5098983;28;20040;-76
2021/06/18 08:34:33;;;;;;;13.07;8.18;;;;;;;;;;5104729;27;20092;-75
2021/06/18 08:36:59;;;;;;;15.73;6.88;;;;;;;;;;5101481;28;20038;-75
2021/06/18 08:39:25;;;;;;;11.27;6.78;;;;;;;;;;5100903;27;20043;-76
2021/06/18 08:41:51;;;;;;;43.38;29.83;;;;;;;;;;5106332;28;20019;-76
2021/06/18 08:44:18;;;;;;;8.98;5.75;;;;;;;;;;5099972;28;20066;-79
2021/06/18 08:46:44;;;;;;;11.40;7.45;;;;;;;;;;5100718;28;20059;-85
2021/06/18 08:49:10;;;;;;;12.73;6.47;;;;;;;;;;5103746;27;20032;-79
2021/06/18 08:51:36;;;;;;;11.55;5.43;;;;;;;;;;5089737;28;20031;-77
2021/06/18 08:54:02;;;;;;;14.00;8.85;;;;;;;;;;5107058;27;20031;-76
2021/06/18 08:56:28;;;;;;;31.25;23.15;;;;;;;;;;5107159;27;20444;-76
2021/06/18 08:58:54;;;;;;;11.40;5.25;;;;;;;;;;5083226;28;20329;-78
2021/06/18 09:01:23;;;;;;;10.52;6.70;;;;;;;;;;5085869;28;20028;-78
2021/06/18 09:03:49;;;;;;;16.20;11.57;;;;;;;;;;5084399;28;20035;-79
2021/06/18 09:06:18;;;;;;;12.38;5.93;;;;;;;;;;5108606;27;20020;-76
2021/06/18 09:08:47;;;;;;;24.95;16.63;;;;;;;;;;5103576;27;20027;-69
2021/06/18 09:11:35;;;;;;;11.10;6.38;;;;;;;;;;5102781;27;20027;-74
2021/06/18 09:14:22;;;;;;;15.43;8.52;;;;;;;;;;5097544;28;20106;-73
2021/06/18 09:17:07;;;;;;;14.13;7.03;;;;;;;;;;5097459;28;20153;-74
2021/06/18 09:19:36;;;;;;;13.95;7.05;;;;;;;;;;5099615;28;20040;-69
2021/06/18 09:22:06;;;;;;;17.58;10.18;;;;;;;;;;5100219;28;20024;-70
2021/06/18 09:24:54;;;;;;;12.00;6.47;;;;;;;;;;5082541;28;20550;-74
2021/06/18 09:27:28;;;;;;;15.63;6.47;;;;;;;;;;5097824;28;20020;-71
2021/06/18 09:29:54;;;;;;;17.48;11.10;;;;;;;;;;5105882;27;20094;-72
2021/06/18 09:32:27;;;;;;;14.45;9.98;;;;;;;;;;5103968;27;20469;-73
2021/06/18 09:35:00;;;;;;;16.27;10.15;;;;;;;;;;5103531;28;20104;-72
2021/06/18 09:37:38;;;;;;;13.70;7.55;;;;;;;;;;5104007;28;20107;-74
2021/06/18 09:40:10;;;;;;;11.05;6.95;;;;;;;;;;5102257;28;20024;-70
2021/06/18 09:42:48;;;;;;;14.65;11.27;;;;;;;;;;5104018;28;20024;-71
2021/06/18 09:45:15;;;;;;;21.52;11.73;;;;;;;;;;5112054;27;20036;-70
2021/06/18 09:47:41;;;;;;;13.40;6.72;;;;;;;;;;5109091;28;20032;-71
2021/06/18 09:50:14;;;;;;;13.52;7.75;;;;;;;;;;5108484;28;20024;-73
2021/06/18 09:52:40;;;;;;;13.27;6.80;;;;;;;;;;5102587;28;20020;-70
2021/06/18 09:55:07;;;;;;;27.42;18.45;;;;;;;;;;5101396;28;20034;-76
2021/06/18 09:57:38;;;;;;;21.80;15.15;;;;;;;;;;5108398;28;20088;-73
2021/06/18 10:00:15;;;;;;;16.02;8.98;;;;;;;;;;5109896;28;20107;-77
2021/06/18 10:02:48;;;;;;;13.70;7.60;;;;;;;;;;5083552;28;20128;-72
2021/06/18 10:05:14;;;;;;;13.02;7.18;;;;;;;;;;5096176;28;20036;-74
2021/06/18 10:07:41;;;;;;;13.27;7.15;;;;;;;;;;5077869;28;20042;-72
2021/06/18 10:10:08;;;;;;;16.08;8.25;;;;;;;;;;5103424;28;20425;-70
2021/06/18 10:12:39;;;;;;;9.05;6.15;;;;;;;;;;5097427;28;20506;-72
2021/06/18 10:15:07;;;;;;;22.92;16.85;;;;;;;;;;5101639;28;20100;-76
2021/06/18 10:17:37;;;;;;;14.48;7.47;;;;;;;;;;5099292;28;20020;-82
2021/06/18 10:20:05;;;;;;;14.15;9.00;;;;;;;;;;5102589;28;20361;-82
2021/06/18 10:22:33;;;;;;;19.27;12.93;;;;;;;;;;5101546;28;20024;-73
2021/06/18 10:25:03;;;;;;;12.10;6.25;;;;;;;;;;5100268;28;20020;-70
2021/06/18 10:27:40;;;;;;;29.23;20.75;;;;;;;;;;5110207;28;20141;-70
2021/06/18 10:30:32;;;;;;;8.15;5.63;;;;;;;;;;5096040;28;20543;-74
2021/06/18 10:32:59;;;;;;;10.00;6.57;;;;;;;;;;5106910;27;20341;-73
2021/06/18 10:35:47;;;;;;;8.82;5.75;;;;;;;;;;5109409;27;20039;-76
2021/06/18 10:38:14;;;;;;;10.30;5.72;;;;;;;;;;5111709;28;20428;-75
2021/06/18 10:40:44;;;;;;;10.55;6.03;;;;;;;;;;5116059;27;20032;-76
2021/06/18 10:43:13;;;;;;;10.88;5.13;;;;;;;;;;5078053;28;20092;-74
2021/06/18 10:46:03;;;;;;;11.00;5.53;;;;;;;;;;5106061;28;20032;-73
2021/06/18 10:48:47;;;;;;;23.35;11.10;;;;;;;;;;5102441;28;20016;-73
2021/06/18 10:51:26;;;;;;;8.15;5.65;;;;;;;;;;5102045;28;20040;-73
2021/06/18 10:54:03;;;;;;;13.27;5.88;;;;;;;;;;5102817;28;20106;-69
2021/06/18 10:56:48;;;;;;;12.25;7.72;;;;;;;;;;5093163;28;20055;-77
2021/06/18 10:59:17;;;;;;;14.18;8.38;;;;;;;;;;5089341;28;20056;-81
2021/06/18 11:01:45;;;;;;;7.93;4.68;;;;;;;;;;5101403;27;20023;-81
2021/06/18 11:04:11;;;;;;;12.30;4.57;;;;;;;;;;5097606;27;20097;-78
2021/06/18 11:06:41;;;;;;;8.82;3.92;;;;;;;;;;5084276;28;20032;-78
2021/06/18 11:09:07;;;;;;;13.48;8.52;;;;;;;;;;5104316;28;20032;-77
2021/06/18 11:11:33;;;;;;;17.40;8.90;;;;;;;;;;5113178;27;20031;-75
2021/06/18 11:14:02;;;;;;;12.10;5.72;;;;;;;;;;5107998;28;20072;-73
2021/06/18 11:16:32;;;;;;;13.57;7.13;;;;;;;;;;5107571;27;20476;-71
2021/06/18 11:19:18;;;;;;;12.80;5.47;;;;;;;;;;5094954;28;20032;-73
2021/06/18 11:21:44;;;;;;;11.98;4.18;;;;;;;;;;5110946;27;20065;-67
2021/06/18 11:24:10;;;;;;;8.38;4.63;;;;;;;;;;5108963;27;20055;-67
2021/06/18 11:26:36;;;;;;;10.05;4.43;;;;;;;;;;5101772;27;20098;-66
2021/06/18 11:29:02;;;;;;;7.47;3.10;;;;;;;;;;5104750;27;20170;-71
2021/06/18 11:31:42;;;;;;;5.70;3.20;;;;;;;;;;5112034;28;20024;-71
2021/06/18 11:34:07;;;;;;;;;;;;;;;;;;5105904;27;20027;-67
2021/06/18 11:36:35;;;;;;;15.73;5.80;;;;;;;;;;5113967;27;20021;-68
2021/06/18 11:39:04;;;;;;;9.52;5.72;;;;;;;;;;5106053;27;20322;-66
2021/06/18 11:41:39;;;;;;;12.27;3.72;;;;;;;;;;5105035;28;20035;-67
2021/06/18 11:44:05;;;;;;;10.50;2.90;;;;;;;;;;5096834;28;20051;-72
2021/06/18 11:46:31;;;;;;;13.27;5.03;;;;;;;;;;5107409;28;20036;-65
2021/06/18 11:49:08;;;;;;;16.55;8.82;;;;;;;;;;5112468;27;20028;-65
2021/06/18 11:51:34;;;;;;;5.22;3.67;;;;;;;;;;5094077;28;20419;-67
2021/06/18 11:54:00;;;;;;;11.27;5.65;;;;;;;;;;5104382;27;20028;-65
2021/06/18 11:56:31;;;;;;;8.98;3.95;;;;;;;;;;5116687;27;20030;-69
2021/06/18 11:58:57;;;;;;;14.07;5.30;;;;;;;;;;5113310;28;20023;-70
2021/06/18 12:01:31;;;;;;;9.15;3.70;;;;;;;;;;5082969;28;20020;-72
2021/06/18 12:03:58;;;;;;;13.48;4.22;;;;;;;;;;5097611;27;20053;-73
2021/06/18 12:06:27;;;;;;;18.00;12.48;;;;;;;;;;5095769;27;20388;-70
2021/06/18 12:09:13;;;;;;;8.77;2.88;;;;;;;;;;5108919;27;20028;-71
2021/06/18 12:11:39;;;;;;;5.53;2.90;;;;;;;;;;5103531;27;20039;-71
2021/06/18 12:14:06;;;;;;;9.82;3.08;;;;;;;;;;5082561;28;20078;-70
2021/06/18 12:16:33;;;;;;;9.38;3.70;;;;;;;;;;5104923;27;20023;-69
2021/06/18 12:19:19;;;;;;;10.23;3.63;;;;;;;;;;5109247;27;20024;-71
2021/06/18 12:21:56;;;;;;;10.32;3.50;;;;;;;;;;5104332;27;20035;-72
2021/06/18 12:24:28;;;;;;;13.00;3.67;;;;;;;;;;5109840;27;20093;-68
2021/06/18 12:27:00;;;;;;;9.02;3.75;;;;;;;;;;5087134;28;20053;-68
2021/06/18 12:29:26;;;;;;;7.43;2.97;;;;;;;;;;5109424;27;20027;-67
2021/06/18 12:31:56;;;;;;;8.38;3.42;;;;;;;;;;5082918;28;20148;-68
2021/06/18 12:34:23;;;;;;;4.68;3.50;;;;;;;;;;5106877;27;20031;-70
2021/06/18 12:37:10;;;;;;;17.42;3.72;;;;;;;;;;5082159;28;20440;-70
2021/06/18 12:39:48;;;;;;;5.30;3.33;;;;;;;;;;5111965;28;20023;-69
2021/06/18 12:42:21;;;;;;;7.70;3.38;;;;;;;;;;5094380;28;20032;-70
2021/06/18 12:45:00;;;;;;;6.10;3.13;;;;;;;;;;5087995;28;20590;-69
2021/06/18 12:47:26;;;;;;;8.02;3.40;;;;;;;;;;5111324;28;20083;-69
2021/06/18 12:49:52;;;;;;;7.45;3.42;;;;;;;;;;5100328;28;20055;-70
2021/06/18 12:52:18;;;;;;;7.03;3.78;;;;;;;;;;5105820;28;20052;-69
2021/06/18 12:54:47;;;;;;;6.03;3.63;;;;;;;;;;5115300;27;20050;-69
2021/06/18 12:57:28;;;;;;;7.68;3.33;;;;;;;;;;5092550;28;20148;-69
2021/06/18 13:00:01;;;;;;;10.73;3.70;;;;;;;;;;5101564;28;20024;-69
2021/06/18 13:02:34;;;;;;;6.53;3.05;;;;;;;;;;5112295;28;20019;-69
2021/06/18 13:05:11;;;;;;;8.30;3.38;;;;;;;;;;5112312;28;20028;-68
2021/06/18 13:07:39;;;;;;;12.60;4.60;;;;;;;;;;5112269;28;20028;-68
2021/06/18 13:10:06;;;;;;;7.68;3.70;;;;;;;;;;5074984;28;20053;-68
2021/06/18 13:12:32;;;;;;;12.70;3.42;;;;;;;;;;5097758;28;20038;-69
2021/06/18 13:14:59;;;;;;;9.75;3.75;;;;;;;;;;5111989;28;20027;-68
2021/06/18 13:17:28;;;;;;;8.07;3.97;;;;;;;;;;5098390;28;20015;-69
2021/06/18 13:19:56;;;;;;;7.57;3.47;;;;;;;;;;5105434;28;20427;-68
2021/06/18 13:22:30;;;;;;;5.78;3.33;;;;;;;;;;5105222;28;20024;-68
2021/06/18 13:25:14;;;;;;;9.32;3.97;;;;;;;;;;5105347;27;20050;-68
2021/06/18 13:27:47;;;;;;;6.63;3.35;;;;;;;;;;5080718;28;20028;-69
2021/06/18 13:30:14;;;;;;;5.07;3.00;;;;;;;;;;5101526;28;20361;-68
2021/06/18 13:32:42;;;;;;;10.65;4.15;;;;;;;;;;5111971;28;20374;-69
2021/06/18 13:35:15;;;;;;;6.07;3.47;;;;;;;;;;5094027;28;20062;-69
2021/06/18 13:37:42;;;;;;;14.18;3.60;;;;;;;;;;5111875;28;20031;-69
2021/06/18 13:40:29;;;;;;;9.80;3.95;;;;;;;;;;5111788;28;20035;-70
2021/06/18 13:42:55;;;;;;;10.40;3.40;;;;;;;;;;5105439;28;20051;-68
2021/06/18 13:45:21;;;;;;;8.98;3.95;;;;;;;;;;5111483;28;20042;-70
2021/06/18 13:50:23;;;;;;;6.18;3.25;;;;;;;;;;5058577;28;20318;-69
2021/06/18 13:52:50;;;;;;;20.42;4.75;;;;;;;;;;5065223;28;20117;-69
2021/06/18 13:55:19;;;;;;;8.45;4.20;;;;;;;;;;5062496;27;20055;-68
2021/06/18 13:57:46;;;;;;;9.38;3.60;;;;;;;;;;5066628;27;20500;-70
2021/06/18 14:00:14;;;;;;;6.78;3.65;;;;;;;;;;5077975;27;20117;-70
2021/06/18 14:02:40;;;;;;;5.25;3.55;;;;;;;;;;5027295;28;20033;-69
2021/06/18 14:05:07;;;;;;;7.95;3.90;;;;;;;;;;5067605;27;20110;-70
2021/06/18 14:07:35;;;;;;;8.35;3.67;;;;;;;;;;5149506;27;20022;-70
2021/06/18 14:10:02;;;;;;;7.65;4.22;;;;;;;;;;5091516;27;20111;-70
2021/06/18 14:12:28;;;;;;;10.38;3.35;;;;;;;;;;5040343;28;20021;-69
2021/06/18 14:17:29;;;;;;;7.13;3.45;;;;;;;;;;5053276;28;20056;-69
2021/06/18 14:19:57;;;;;;;11.77;3.30;;;;;;;;;;5086885;27;20029;-67
2021/06/18 14:22:23;;;;;;;5.88;3.05;;;;;;;;;;5096631;27;20027;-67
2021/06/18 14:24:49;;;;;;;10.15;2.58;;;;;;;;;;5132008;27;20031;-66
2021/06/18 14:27:15;;;;;;;8.13;2.90;;;;;;;;;;5074623;27;20036;-65
2021/06/18 14:29:41;;;;;;;10.77;3.17;;;;;;;;;;5047182;27;20025;-65
2021/06/18 14:32:09;;;;;;;11.45;3.55;;;;;;;;;;5052070;27;20497;-66
2021/06/18 14:34:38;;;;;;;7.75;3.78;;;;;;;;;;5044231;27;20689;-67
2021/06/18 14:37:04;;;;;;;8.55;3.30;;;;;;;;;;5044262;27;21249;-66
2021/06/18 14:39:31;;;;;;;8.95;3.13;;;;;;;;;;5043088;27;20083;-64
2021/06/18 14:41:58;;;;;;;6.93;3.35;;;;;;;;;;5046050;27;20109;-65
2021/06/18 14:44:24;;;;;;;9.63;3.17;;;;;;;;;;5044984;27;20022;-63
2021/06/18 14:46:50;;;;;;;11.98;3.63;;;;;;;;;;5043721;28;20031;-63
2021/06/18 14:49:16;;;;;;;10.60;3.53;;;;;;;;;;5065796;27;20041;-64
2021/06/18 14:51:44;;;;;;;10.70;3.83;;;;;;;;;;5080184;27;20021;-64
2021/06/18 14:54:11;;;;;;;9.55;3.72;;;;;;;;;;5075739;27;20064;-64
2021/06/18 14:56:38;;;;;;;8.10;3.42;;;;;;;;;;5080437;27;20307;-64
2021/06/18 14:59:04;;;;;;;10.32;4.72;;;;;;;;;;5035154;28;20071;-64
2021/06/18 15:01:30;;;;;;;17.73;3.58;;;;;;;;;;5099150;27;20118;-64
2021/06/18 15:03:56;;;;;;;8.43;3.17;;;;;;;;;;5046115;27;20017;-66
2021/06/18 15:06:23;;;;;;;9.02;3.63;;;;;;;;;;5031960;27;20058;-65
2021/06/18 15:08:51;;;;;;;10.68;3.65;;;;;;;;;;5081582;27;20340;-65
2021/06/18 15:11:20;;;;;;;10.73;3.80;;;;;;;;;;5043621;27;20019;-66
2021/06/18 15:13:46;;;;;;;9.82;3.72;;;;;;;;;;5039518;28;20025;-65
2021/06/18 15:16:12;;;;;;;10.63;3.80;;;;;;;;;;5069796;27;20045;-65
2021/06/18 15:18:39;;;;;;;12.30;4.05;;;;;;;;;;5086735;27;20080;-68
2021/06/18 15:21:05;;;;;;;10.13;4.50;;;;;;;;;;5051386;27;20033;-67
2021/06/18 15:23:31;;;;;;;8.65;3.67;;;;;;;;;;5049323;27;20040;-69
2021/06/18 15:25:57;;;;;;;9.68;3.72;;;;;;;;;;5024004;27;20076;-67
2021/06/18 15:28:23;;;;;;;12.65;3.80;;;;;;;;;;5040628;27;20414;-70
2021/06/18 15:30:49;;;;;;;9.75;3.72;;;;;;;;;;5004568;28;20335;-67
2021/06/18 15:33:15;;;;;;;12.40;4.28;;;;;;;;;;5030235;28;20029;-68
2021/06/18 15:35:41;;;;;;;11.55;4.15;;;;;;;;;;5036267;27;20421;-66
2021/06/18 15:38:07;;;;;;;11.48;4.20;;;;;;;;;;5086698;27;20017;-67
2021/06/18 15:40:33;;;;;;;12.38;4.80;;;;;;;;;;5110473;27;20492;-67
2021/06/18 15:43:02;;;;;;;11.02;4.65;;;;;;;;;;5132308;27;20027;-67
2021/06/18 15:45:28;;;;;;;7.72;4.15;;;;;;;;;;5091507;27;20027;-68
2021/06/18 15:47:54;;;;;;;7.50;4.03;;;;;;;;;;5023779;28;20120;-67
2021/06/18 15:50:21;;;;;;;10.38;4.10;;;;;;;;;;5036197;28;20050;-66
2021/06/18 15:52:47;;;;;;;13.38;4.80;;;;;;;;;;5030179;28;20378;-65
2021/06/18 15:55:13;;;;;;;8.23;3.72;;;;;;;;;;5047667;27;20017;-67
2021/06/18 15:57:40;;;;;;;10.73;4.43;;;;;;;;;;5067825;27;20123;-67
2021/06/18 16:00:09;;;;;;;7.72;3.45;;;;;;;;;;5067633;27;20692;-67
2021/06/18 16:02:36;;;;;;;13.38;3.67;;;;;;;;;;5058672;27;20025;-67
2021/06/18 16:05:02;;;;;;;16.05;5.10;;;;;;;;;;5067354;27;20633;-67
2021/06/18 16:07:28;;;;;;;10.40;3.83;;;;;;;;;;5075139;27;20027;-66
2021/06/18 16:09:54;;;;;;;12.85;4.38;;;;;;;;;;5049579;28;20029;-65
2021/06/18 16:12:20;;;;;;;9.43;4.10;;;;;;;;;;5048497;28;20053;-66
2021/06/18 16:14:46;;;;;;;11.25;4.15;;;;;;;;;;5018587;28;20056;-67
2021/06/18 16:17:12;;;;;;;7.15;3.97;;;;;;;;;;5042640;28;20036;-66
2021/06/18 16:19:44;;;;;;;7.20;4.45;;;;;;;;;;5114750;27;20031;-68
2021/06/18 16:22:11;;;;;;;8.50;3.67;;;;;;;;;;5065315;27;20435;-66
2021/06/18 16:24:40;;;;;;;13.30;4.78;;;;;;;;;;5093706;27;20058;-67
2021/06/18 16:27:07;;;;;;;7.68;4.43;;;;;;;;;;5039611;27;20086;-67
2021/06/18 16:29:33;;;;;;;13.70;6.25;;;;;;;;;;5020749;28;20037;-68
2021/06/18 16:32:00;;;;;;;10.18;3.97;;;;;;;;;;5020092;28;20033;-67
2021/06/18 16:34:26;;;;;;;9.60;4.45;;;;;;;;;;5030214;28;20432;-67
2021/06/18 16:36:52;;;;;;;9.55;5.00;;;;;;;;;;5038164;28;20018;-67
2021/06/18 16:39:18;;;;;;;12.15;3.90;;;;;;;;;;5070703;27;20087;-66
2021/06/18 16:41:44;;;;;;;7.32;4.47;;;;;;;;;;5039124;27;20029;-66
2021/06/18 16:44:11;;;;;;;9.77;4.45;;;;;;;;;;5062219;27;20030;-66
2021/06/18 16:46:37;;;;;;;8.70;3.80;;;;;;;;;;5036805;27;20018;-66
2021/06/18 16:49:05;;;;;;;9.52;4.47;;;;;;;;;;5029514;28;20052;-65
2021/06/18 16:51:31;;;;;;;11.48;5.22;;;;;;;;;;5020987;28;20111;-65
2021/06/18 16:53:57;;;;;;;7.90;4.53;;;;;;;;;;5033566;28;20473;-65
2021/06/18 16:56:24;;;;;;;8.70;4.30;;;;;;;;;;5044857;27;20105;-65
2021/06/18 16:58:51;;;;;;;10.82;4.43;;;;;;;;;;5039901;27;20041;-65
2021/06/18 17:01:17;;;;;;;9.48;4.20;;;;;;;;;;5043900;27;20028;-66
2021/06/18 17:03:43;;;;;;;11.63;4.72;;;;;;;;;;5034694;28;20019;-66
2021/06/18 17:06:09;;;;;;;9.35;5.28;;;;;;;;;;5041172;27;20017;-65
2021/06/18 17:08:37;;;;;;;8.63;4.55;;;;;;;;;;5016637;28;20057;-66
2021/06/18 17:11:04;;;;;;;8.48;4.68;;;;;;;;;;5011157;28;20054;-66
2021/06/18 17:13:30;;;;;;;11.05;4.80;;;;;;;;;;5031593;28;20029;-66
2021/06/18 17:15:57;;;;;;;8.70;4.40;;;;;;;;;;5046226;27;20826;-66
2021/06/18 17:18:23;;;;;;;10.30;4.47;;;37.00;51.70;;;;;;5035496;27;20056;-66
2021/06/18 17:20:49;;;;;;;11.13;5.38;;;34.80;57.50;;;;;;5033337;27;20045;-65
2021/06/18 17:23:17;;;;;;;8.95;4.78;;;;;;;;;;5047853;27;20029;-65
2021/06/18 17:25:46;;;;;;;9.57;5.43;;;;;;;;;;5035732;28;20037;-66
2021/06/18 17:28:12;;;;;;;11.90;5.47;;;;;;;;;;5031285;28;20033;-65
2021/06/18 17:30:38;;;;;;;13.55;5.05;;;;;;;;;;5022496;28;20025;-66
2021/06/18 17:33:07;;;;;;;7.93;4.85;;;;;;;;;;5027115;28;20358;-65
2021/06/18 17:35:34;;;;;;;4.82;4.22;;;;;;;;;;5030314;28;20038;-65
2021/06/18 17:38:00;;;;;;;7.20;4.88;;;;;;;;;;5033790;28;20029;-65
2021/06/18 17:40:26;;;;;;;10.45;4.78;;;;;;;;;;5042580;27;20033;-65
2021/06/18 17:42:52;;;;;;;9.68;4.40;;;;;;;;;;5036788;27;20454;-65
2021/06/18 17:45:21;;;;;;;12.13;4.80;;;;;;;;;;5048760;28;20485;-66
2021/06/18 17:47:47;;;;;;;4.95;4.05;;;;;;;;;;5027439;28;20082;-66
2021/06/18 17:50:13;;;;;;;13.32;5.43;;;;;;;;;;5028009;28;20054;-66
2021/06/18 17:52:41;;;;;;;13.52;4.78;;;;;;;;;;5030661;28;20101;-65
2021/06/18 17:55:20;;;;;;;6.28;4.40;;;;;;;;;;5038373;28;20063;-65
2021/06/18 17:57:46;;;;;;;12.00;5.38;;;;;;;;;;5016671;28;20360;-66
2021/06/18 18:00:12;;;;;;;21.27;5.65;;;;;;;;;;5039585;28;20378;-66
2021/06/18 18:02:38;;;;;;;8.05;5.07;;;;;;;;;;5097519;28;20052;-66
2021/06/18 18:05:07;;;;;;;9.10;4.85;;;;;;;;;;5099318;28;20639;-65
2021/06/18 18:07:34;;;;;;;12.38;5.38;;;;;;;;;;5026405;28;20086;-65
2021/06/18 18:10:00;;;;;;;11.07;4.45;;;;;;;;;;5049503;28;20454;-64
2021/06/18 18:12:25;;;;;;;13.55;5.78;;;34.40;57.90;;;;;;5026177;28;20534;-65
2021/06/18 18:14:51;;;;;;;8.77;5.18;;;32.50;61.80;;;;;;5037465;28;20056;-66
2021/06/18 18:17:17;;;;;;;10.45;4.97;;;32.30;61.90;;;;;;5015192;28;20382;-65
2021/06/18 18:19:42;;;;;;;11.30;4.53;;;32.20;62.10;;;;;;5051332;28;20017;-66
2021/06/18 18:22:10;;;;;;;9.90;4.40;;;32.10;61.90;;;;;;5097491;27;20452;-65
2021/06/18 18:24:43;;;;;;;7.45;5.07;;;31.90;61.90;;;;;;5054690;28;20050;-65
2021/06/18 18:27:09;;;;;;;7.18;4.25;;;31.80;62.20;;;;;;5042821;28;20043;-65
2021/06/18 18:29:35;;;;;;;8.23;4.63;;;31.80;62.40;;;;;;5070011;27;20029;-65
2021/06/18 18:32:01;;;;;;;8.02;4.65;;;31.80;62.50;;;;;;5046216;28;20025;-65
2021/06/18 18:34:27;;;;;;;10.30;5.45;;;31.80;62.00;;;;;;5103721;27;20019;-65
2021/06/18 18:36:54;;;;;;;12.25;5.95;;;31.80;62.40;;;;;;5060305;27;20071;-66
2021/06/18 18:39:21;;;;;;;8.68;4.82;;;31.80;62.20;;;;;;5077973;27;20040;-66
2021/06/18 18:41:50;;;;;;;9.68;5.18;;;31.80;62.10;;;;;;5046587;28;20025;-66
2021/06/18 18:44:16;;;;;;;10.60;4.68;;;31.80;62.10;;;;;;5072187;27;20057;-66
2021/06/18 18:46:41;;;;;;;9.57;4.80;;;31.80;62.20;;;;;;5054337;27;20026;-65
2021/06/18 18:49:07;;;;;;;10.30;4.80;;;31.70;62.30;;;;;;5047566;27;20543;-65
2021/06/18 18:51:35;;;;;;;8.95;5.38;;;31.70;62.80;;;;;;5041004;27;20075;-65
2021/06/18 18:54:01;;;;;;;15.27;6.32;;;31.60;62.90;;;;;;5043571;27;20037;-66
2021/06/18 18:56:26;;;;;;;16.02;6.80;;;31.60;63.80;;;;;;5069209;27;20022;-66
2021/06/18 18:59:04;;;;;;;10.30;6.15;;;31.50;63.20;;;;;;5060224;27;20360;-65
2021/06/18 19:01:31;;;;;;;10.35;5.25;;;31.50;63.50;;;;;;5072833;27;20033;-66
2021/06/18 19:03:59;;;;;;;12.45;5.13;;;31.40;63.60;;;;;;5044138;27;20021;-66
2021/06/18 19:06:26;;;;;;;5.93;4.22;;;31.30;63.90;;;;;;5066923;27;20035;-66
2021/06/18 19:08:55;;;;;;;8.38;4.78;;;31.20;64.30;;;;;;5106140;27;20073;-66
2021/06/18 19:11:23;;;;;;;12.10;5.60;;;31.10;64.60;;;;;;5060447;28;20104;-67
2021/06/18 19:13:49;;;;;;;7.38;4.60;;;30.90;65.00;;;;;;5070323;27;20029;-67
2021/06/18 19:16:15;;;;;;;9.63;4.82;;;;;;;;;;5065937;27;20025;-67
2021/06/18 19:18:41;;;;;;;7.82;5.40;;;;;;;;;;5106257;27;20030;-66
2021/06/18 19:21:07;;;;;;;13.13;4.93;;;;;;;;;;5045012;28;20033;-66
2021/06/18 19:23:33;;;;;;;12.00;4.70;;;;;;;;;;5072769;27;20034;-66
2021/06/18 19:26:00;;;;;;;9.20;5.00;;;;;;;;;;5080395;27;20449;-67
2021/06/18 19:28:26;;;;;;;13.20;6.22;;;;;;;;;;5104992;27;20043;-66
2021/06/18 19:30:52;;;;;;;7.82;4.68;;;;;;;;;;5097902;27;20027;-67
2021/06/18 19:33:18;;;;;;;11.45;5.22;;;;;;;;;;5105417;27;20034;-66
2021/06/18 19:35:44;;;;;;;6.85;4.38;;;;;;;;;;5105349;27;20072;-67
2021/06/18 19:38:12;;;;;;;12.43;4.85;;;;;;;;;;5032632;27;20374;-66
2021/06/18 19:40:38;;;;;;;9.63;5.00;;;;;;;;;;5028873;28;20102;-66
2021/06/18 19:43:07;;;;;;;9.55;4.90;;;;;;;;;;5049614;27;20526;-66
2021/06/18 19:45:35;;;;;;;13.82;5.57;;;;;;;;;;5014618;28;20022;-66
2021/06/18 19:48:01;;;;;;;7.45;5.00;;;;;;;;;;5017752;28;20552;-67
2021/06/18 19:50:28;;;;;;;11.73;4.90;;;;;;;;;;5053086;28;20041;-67
2021/06/18 19:52:56;;;;;;;6.00;4.53;;;;;;;;;;5071273;27;20021;-67
2021/06/18 19:55:22;;;;;;;11.40;4.40;;;;;;;;;;5041399;28;20552;-69
2021/06/18 19:57:49;;;;;;;10.02;4.45;;;;;;;;;;5049066;28;20029;-69
2021/06/18 20:00:16;;;;;;;7.45;4.75;;;;;;;;;;5038355;28;20041;-68
2021/06/18 20:02:42;;;;;;;12.68;5.80;;;;;;;;;;5041283;28;20035;-68
2021/06/18 20:05:09;;;;;;;10.27;6.97;;;;;;;;;;5038208;28;20033;-68
2021/06/18 20:07:35;;;;;;;7.38;5.22;;;;;;;;;;5087835;27;20126;-68
2021/06/18 20:10:01;;;;;;;12.15;5.30;;;;;;;;;;5111114;27;20026;-68
2021/06/18 20:12:29;;;;;;;13.98;6.00;;;;;;;;;;5025758;28;20443;-68
2021/06/18 20:14:58;;;;;;;8.18;4.45;;;;;;;;;;5045123;28;20025;-68
2021/06/18 20:17:24;;;;;;;7.65;4.68;;;;;;;;;;5045595;27;20096;-68
2021/06/18 20:19:50;;;;;;;7.15;4.30;;;;;;;;;;5033534;28;20029;-69
2021/06/18 20:22:16;;;;;;;8.65;4.50;;;;;;;;;;5044999;27;20043;-69
2021/06/18 20:24:42;;;;;;;10.80;5.47;;;;;;;;;;5050583;27;20023;-67
2021/06/18 20:27:08;;;;;;;8.93;4.90;;;;;;;;;;5058544;27;20019;-68